Hlavní strana
METAR-TAF:

METAR-TAF

Letiště :

Andøya, Norsko

zeměpisná šířka: 69-18N, zeměpisná délka: 016-09E, výška: 1 m

Aktuální stav počasí

Zpráva byla vytvořena před 14 minutami, v 02:20 UTC
Jižní vítr 9 kt
Teplota 7°C
Vlhkost vzduchu 87%
Tlak 1008 hPa
Viditelnost 10 km a více

METAR: ENAN 140220Z AUTO 19009KT 9999 BKN027/// OVC034/// 07/05 Q1008 RERA

Čas: 03:34 (02:34 UTC)

Předpověď počasí

Předpověď platná od 14 v 00 UTC do 14 v 24 UTC
Jihojihozápadní vítr 8 kt
Viditelnost 10 km a více
Skoro jasno ve výšce 1000 ft
Oblačno až skoro zataženo ve výšce 2500 ft
slabé dešťové přeháňky
Dočasný
od 14 v 07 UTC do 14 v 15 UTC
Jihojihozápadní vítr 18 kt
Polojasno ve výšce 800 ft
Oblačno až skoro zataženo ve výšce 1400 ft, Cumulonimbus.
dešťové přeháňky
Změna
od 14 v 15 UTC do 14 v 18 UTC
Jižní vítr 22 kt
Dočasný
od 14 v 20 UTC do 14 v 24 UTC
déšť

TAF: ENAN 1400/1424 21008KT 9999 -SHRA FEW010 BKN025 TEMPO 1407/1415 21018KT SHRA SCT008 BKN014CB BECMG 1415/1418 19022KT TEMPO 1420/1424 RA

Stav a předpovědi počasí z více než 4 000 letišť (zprávy METAR a TAF).

Červené a žluté tečky na mapě představují dostupné meteorologické stanice.

Když kurzor umístíte na tečku, zobrazí se název stanice.

Pak kliknutím zobrazíte stav a předpověď počasí.

Chcete-li změnit mapu, kliknutím na zelené tlačítko se znaménkem +mapu přiblížíte, kliknutím na zelené tlačítko se znaménkem – mapu oddálíte a kliknutím na zelené šipky přejdete na sousední mapy.


METAR-TAF: